windsock image

Welcome to Bigfield Strip.

anemometer image
     

 Help for dials.  
 
Local Met:

Wind:   
10 Min average:  
257 ° / 5.0 kts (4.3)
222° / 4.3

Temperature:  
8.6°C C
Dew Point:  
6.3°C C
QNH:  
Trend:  
1027.6 mb mb
+0.2mb/hr
BigField Strip. This image updates approximately every minute, it can have a two minute delay.  
 

Humidity:  
86 %
Sunrise:   04:33z
Sunset:   19:28z
Updated:  
  UTC
 
   More met info, trends, radar, history etc. available here   

LUTON Metar   EGGW 010720Z AUTO 19007KT 160V240 9999 NCD 07/04 Q1027
 
  TAF   2016/05/01 06:15 TAF EGGW 010457Z 0106/0206 21010KT CAVOK BECMG 0114/0117 SCT015 BKN035 BECMG 0117/0120 BKN010 PROB30 TEMPO 0119/0124 8000 -RA BECMG 0122/0124 BKN004 TEMPO 0200/0204 3000 RADZ BKN001 PROB30 TEMPO 0200/0204 0800 FG BECMG 0204/0206 BKN012
 
BENSON Metar   EGUB 010650Z AUTO 17007KT 9999 // NCD 06/03 Q1028
 
  TAF   2016/04/29 15:33 TAF TAF EGUB 291624Z 2915/2921 CNL
 
Big Field view 1 icon   Big Field view 2 icon   Big Field view 3 icon   Chart AL3a in PDF icon   Chart AL3a in Word icon

WARNING:
This information is provided by the Airstrip unofficial weather station, DO NOT depend on the data provided here for any purpose.
This page is updated for latest Metars & TAF's every 5 minutes. Refresh the browser to check for the lastest.
Page designed for a minimum browser size of 1024x768.
© Copyright 2016 BigField Strip. This page auto generated 07:56 UTC - 01/05/2016   Contact Us
Valid HTML 4.01 Transitional     Windows uptime: 6 Days 5 Hours 24 Minutes 24 Seconds    WD started: 02:37 25/04/16    Free memory: 1528MB     Valid CSS!